Poulsbo, WA (98370)

2:50 PM PDT on September 19, 2014 (GMT -0700)
Central Market Poulsbo | Change Station
CLOSE
Current Station
Personal Weather Station
Location: Poulsbo, WA
Elevation: 68 ft
Nearby Weather Stations

Elev 68 ft 47.75 °N, 122.64 °W | Updated 4 seconds ago

Partly Cloudy
Partly Cloudy
73.0 °F
Feels Like 76 °F
N
0.0
Wind Variable Wind from North
Gusts 0.0 mph

Today
High -- | Low -- °F
--% Chance of Precip.
Yesterday
High -- | Low -- °F
Precip. -- in
6:53 AM 7:14 PM
Waning Crescent, 16% visible
Pressure 30.11 in
Visibility 10.0 miles
Clouds Clear
Heat Index 76 °F
Dew Point 60 °F
Humidity 64%
Rainfall 0.02 in
Snow Depth 0 in , 0 in , 0 in
UV 5 out of 12
Pollen 1.10 out of 12
Air Quality Not available.
Flu Activity Not available.
METAR KPWT 192135Z AUTO 21008G16KT 10SM CLR 23/15 A3011 RMK AO1

More Conditions Fewer Conditions

Pressure 30.11 in
Visibility 10.0 miles
Clouds Clear
Heat Index 76 °F
Dew Point 60 °F
Humidity 64%
Rainfall 0.02 in
Snow Depth 0 in , 0 in , 0 in
UV 5 out of 12
Pollen 1.10 out of 12
Air Quality Not available.
Flu Activity Not available.
METAR KPWT 192135Z AUTO 21008G16KT 10SM CLR 23/15 A3011 RMK AO1

More Conditions Fewer Conditions

10-Day Weather Forecast

Almanac

Astronomy

Sep. 19, 2014 Rise Set
Actual Time 6:53 AM PDT 7:14 PM PDT
Civil Twilight 6:22 AM PDT 7:45 PM PDT
Nautical Twilight 5:45 AM PDT 8:21 PM PDT
Astronomical Twilight 5:07 AM PDT 8:59 PM PDT
Moon 2:29 AM PDT 4:58 PM PDT
Length of Visible Light 13h 22m
Length of Day
12h 20m
Tomorrow will be 3m 25s shorter.
Waning Crescent, 16% of the Moon is Illuminated
Today
Waning Crescent
Sep 24
New
Oct 1
First Quarter
Oct 8
Full
Oct 15
Last Quarter

Today's Extremes

State Highs State Lows

Community

WunderPhotos

Upload Photos

1,754,703 photos uploaded!

WunderBlogs® & News

By Dr. Jeff Masters
Director of Meteorology, Weather Underground
By Kari Strenfel
Meteorologist, Weather Underground
By Christopher C. Burt
Weather Historian, Weather Underground
September 19, 2014
September 19, 2014
September 19, 2014

Nearby

Snow Depth

Station Depth Elevation
Alpine Meadows 0 in 3500 ft
Sentinel Butte 0 in 4920 ft
Elbow Lake 0 in 3200 ft
Stampede Pass 0 in 3860 ft
Quartz Peak 0 in 4700 ft

Earthquake Activity

City Distance Mag. Time & Date
Seabeck, Washington 21 miles 4.0 3:06 AM PDT
2014-09-17
Minimum magnitude displayed is 2.5.

Coastal Water Temperatures

Place Temperature
Port Townsend, WA 54.0 °F
Seattle, WA 55.9 °F
Friday Harbor, WA 52.0 °F
Tacoma, WA 55.0 °F

Nearby Weather Stations